Terminal Aerodrome Forecast
Issued by NWS Albany, NY

Home | Current Version | Previous Version | Text Only | Print | Product List | Glossary On
Versions: 1 2 3 4 5 6 7 8 9 10 11 12 13 14 15 16 17 18 19 20
000
FTUS41 KALY 292321
TAFALB
TAF
KALB 292321Z 3000/3024 14003KT P6SM FEW060 SCT150 BKN200
     FM300600 00000KT P6SM SCT060 BKN150
     FM301300 21003KT P6SM SCT050 BKN120
     FM301800 27005KT P6SM SCT050 SCT100=

USA.gov is the U.S. government's official web portal to all federal, state and local government web resources and services.